Time;durP1;ratioP1;P1;durP2;ratioP2;P2;SDS_P1;SDS_P2;PMS_P1;PMS_P2;Temp;Humidity;BMP_temperature;BMP_pressure;BME280_temperature;BME280_humidity;BME280_pressure;Samples;Min_cycle;Max_cycle;Signal;HPM_P1;HPM_P2
2023/12/12 00:02:02;;;;;;;5.17;1.33;;;12.70;99.90;;;12.81;59.49;100460.75;4899810;28;101402;-47
2023/12/12 00:04:27;;;;;;;3.47;1.10;;;12.60;99.90;;;12.93;58.92;100463.75;4913609;28;105879;-51
2023/12/12 00:06:53;;;;;;;3.53;0.70;;;12.70;99.90;;;12.82;59.39;100472.19;4913859;28;97863;-50
2023/12/12 00:09:19;;;;;;;6.80;1.13;;;12.70;99.90;;;12.79;59.81;100467.91;4899327;28;101831;-49
2023/12/12 00:11:46;;;;;;;7.53;1.33;;;12.60;99.90;;;12.76;59.59;100465.41;4899301;28;98097;-51
2023/12/12 00:14:12;;;;;;;3.60;1.00;;;12.60;99.90;;;12.76;59.81;100465.41;4877868;28;97843;-51
2023/12/12 00:16:38;;;;;;;6.57;1.30;;;12.60;99.90;;;12.76;60.31;100461.91;4902162;28;97695;-53
2023/12/12 00:19:05;;;;;;;4.87;0.90;;;12.60;99.90;;;12.73;60.25;100449.69;4893305;28;97349;-49
2023/12/12 00:21:30;;;;;;;7.23;0.97;;;12.60;99.90;;;12.70;59.40;100452.47;4899200;28;97540;-53
2023/12/12 00:23:59;;;;;;;4.57;1.03;;;12.60;99.90;;;12.71;59.51;100443.59;4904138;28;99362;-52
2023/12/12 00:26:25;;;;;;;1.73;1.17;;;12.50;99.90;;;12.69;60.19;100440.16;4893709;28;97549;-49
2023/12/12 00:28:51;;;;;;;5.73;1.40;;;12.50;99.90;;;12.71;60.16;100438.28;4898790;28;97648;-52
2023/12/12 00:31:17;;;;;;;7.97;1.17;;;12.50;99.90;;;12.73;60.49;100432.94;4899990;28;98009;-52
2023/12/12 00:33:43;;;;;;;3.17;0.90;;;12.50;99.90;;;12.71;60.40;100427.72;4879951;28;99466;-50
2023/12/12 00:36:10;;;;;;;5.60;1.07;;;12.60;99.90;;;12.75;60.36;100429.31;4898929;28;106165;-48
2023/12/12 00:38:36;;;;;;;4.13;1.33;;;12.60;99.90;;;12.71;60.20;100427.72;4901690;28;98047;-50
2023/12/12 00:41:03;;;;;;;10.60;1.33;;;12.50;99.90;;;12.86;59.78;100425.25;4902706;28;99246;-51
2023/12/12 00:43:29;;;;;;;3.10;1.10;;;12.60;99.90;;;12.96;59.37;100431.81;4903682;28;98699;-54
2023/12/12 00:45:55;;;;;;;3.33;1.27;;;12.70;99.90;;;12.95;59.21;100435.41;4899955;28;97116;-52
2023/12/12 00:48:20;;;;;;;5.23;1.33;;;12.70;99.90;;;12.95;59.51;100440.69;4899701;28;97275;-49
2023/12/12 00:50:48;;;;;;;4.20;1.20;;;12.70;99.90;;;12.88;60.18;100428.72;4900807;28;102571;-49
2023/12/12 00:53:14;;;;;;;4.87;1.10;;;12.60;99.90;;;12.85;59.74;100434.13;4901054;28;97705;-52
2023/12/12 00:55:40;;;;;;;4.00;1.00;;;12.60;99.90;;;12.80;60.01;100431.72;4905141;28;97535;-51
2023/12/12 00:58:06;;;;;;;7.40;1.37;;;12.60;99.90;;;12.82;60.42;100429.84;4902333;28;97815;-52
2023/12/12 01:00:32;;;;;;;3.37;1.00;;;12.50;99.90;;;12.86;59.54;100436.69;4901862;28;97205;-50
2023/12/12 01:02:58;;;;;;;4.13;1.33;;;12.60;99.90;;;12.87;59.60;100437.56;4883873;28;98084;-47
2023/12/12 01:05:24;;;;;;;3.77;1.73;;;12.60;99.90;;;12.86;60.22;100430.56;4892106;28;100211;-48
2023/12/12 01:07:50;;;;;;;5.50;1.63;;;12.60;99.90;;;12.80;60.34;100432.56;4893776;28;97390;-49
2023/12/12 01:10:15;;;;;;;3.60;1.20;;;12.50;99.90;;;12.71;60.46;100430.34;4897805;28;97971;-49
2023/12/12 01:12:41;;;;;;;4.00;1.50;;;12.40;99.90;;;12.65;61.00;100435.97;4904684;28;97456;-51
2023/12/12 01:15:08;;;;;;;4.83;1.50;;;12.30;99.90;;;12.59;60.45;100432.75;4901866;28;98428;-50
2023/12/12 01:17:34;;;;;;;6.00;1.77;;;12.20;99.90;;;12.49;61.28;100432.31;4906503;28;97016;-52
2023/12/12 01:20:00;;;;;;;6.23;1.47;;;12.10;99.90;;;12.44;60.88;100439.59;4905760;28;98744;-52
2023/12/12 01:22:26;;;;;;;4.10;1.67;;;12.00;99.90;;;12.30;61.53;100436.78;4907142;28;97881;-52
2023/12/12 01:24:52;;;;;;;7.37;1.20;;;11.90;99.90;;;12.19;62.12;100431.97;4905534;28;97585;-50
2023/12/12 01:27:19;;;;;;;4.50;1.37;;;11.80;99.90;;;12.10;62.16;100440.31;4904138;28;97218;-48
2023/12/12 01:29:45;;;;;;;8.30;1.70;;;11.70;99.90;;;12.04;62.45;100430.88;4903771;28;97526;-50
2023/12/12 01:32:11;;;;;;;9.03;1.50;;;11.70;99.90;;;11.99;62.21;100427.56;4904099;28;97739;-49
2023/12/12 01:34:36;;;;;;;5.50;1.10;;;11.60;99.90;;;11.93;62.06;100427.84;4899172;28;97433;-54
2023/12/12 01:37:03;;;;;;;3.27;1.30;;;11.60;99.90;;;11.88;62.77;100430.72;4905929;28;97505;-49
2023/12/12 01:39:29;;;;;;;7.73;1.60;;;11.50;99.90;;;11.86;62.82;100437.84;4907566;28;98621;-48
2023/12/12 01:41:54;;;;;;;6.80;1.80;;;11.50;99.90;;;11.87;63.03;100429.00;4889831;28;102616;-48
2023/12/12 01:44:20;;;;;;;3.50;1.17;;;11.50;99.90;;;11.83;62.56;100430.03;4902103;28;97918;-52
2023/12/12 01:46:50;;;;;;;4.83;0.93;;;11.50;99.90;;;11.84;63.31;100428.25;4901592;28;98885;-50
2023/12/12 01:49:17;;;;;;;3.40;1.40;;;11.40;99.90;;;11.82;62.86;100440.66;4880491;28;97945;-49
2023/12/12 01:51:46;;;;;;;3.67;0.80;;;11.40;99.90;;;11.80;63.36;100438.09;4891844;28;97541;-51
2023/12/12 01:54:14;;;;;;;5.50;0.90;;;11.40;99.90;;;11.82;63.44;100424.81;4903318;28;97981;-47
2023/12/12 01:56:40;;;;;;;3.87;0.93;;;11.40;99.90;;;11.80;62.85;100431.97;4898068;28;97458;-48
2023/12/12 01:59:06;;;;;;;3.20;0.90;;;11.40;99.90;;;11.81;63.33;100428.38;4904298;28;97817;-49
2023/12/12 02:01:32;;;;;;;3.27;1.00;;;11.40;99.90;;;11.81;63.49;100423.09;4901857;28;97401;-49
2023/12/12 02:04:00;;;;;;;4.63;1.30;;;11.40;99.90;;;11.82;63.28;100432.75;4900908;28;97614;-47
2023/12/12 02:06:28;;;;;;;2.43;1.10;;;11.40;99.90;;;11.78;63.22;100423.22;4883447;28;97154;-48
2023/12/12 02:08:54;;;;;;;2.90;0.83;;;11.40;99.90;;;11.75;63.30;100423.34;4885203;28;97327;-49
2023/12/12 02:11:21;;;;;;;4.37;1.00;;;11.40;99.90;;;11.74;63.63;100427.78;4906369;28;97703;-50
2023/12/12 02:13:48;;;;;;;4.07;1.20;;;11.40;99.90;;;11.72;63.29;100426.13;4907858;28;97296;-47
2023/12/12 02:16:14;;;;;;;3.67;1.23;;;11.40;99.90;;;11.71;63.90;100427.88;4884734;28;97617;-48
2023/12/12 02:18:40;;;;;;;1.90;0.80;;;11.30;99.90;;;11.74;63.48;100430.41;4891139;28;97902;-47
2023/12/12 02:21:06;;;;;;;4.90;1.50;;;11.40;99.90;;;11.73;63.56;100431.34;4907618;28;110449;-49
2023/12/12 02:23:32;;;;;;;2.03;0.73;;;11.30;99.90;;;11.72;63.98;100428.78;4903967;28;97121;-48
2023/12/12 02:26:02;;;;;;;4.13;1.17;;;11.30;99.90;;;11.69;63.89;100434.16;4914460;28;97275;-50
2023/12/12 02:28:29;;;;;;;3.50;1.17;;;11.30;99.90;;;11.70;64.31;100431.47;4898859;28;102267;-48
2023/12/12 02:30:55;;;;;;;3.07;1.00;;;11.30;99.90;;;11.71;64.11;100433.19;4904243;28;97075;-49
2023/12/12 02:33:21;;;;;;;3.70;1.27;;;11.30;99.90;;;11.70;64.54;100430.59;4900188;28;97369;-48
2023/12/12 02:35:47;;;;;;;2.00;1.10;;;11.30;99.90;;;11.70;64.36;100430.59;4907421;28;97288;-48
2023/12/12 02:38:16;;;;;;;5.00;1.10;;;11.40;99.90;;;11.71;64.60;100434.97;4903294;28;98171;-47
2023/12/12 02:40:41;;;;;;;4.47;1.33;;;11.40;99.90;;;11.72;64.56;100434.06;4886621;28;100878;-48
2023/12/12 02:43:07;;;;;;;5.90;1.53;;;11.40;99.90;;;11.72;64.67;100434.06;4902979;28;97981;-49
2023/12/12 02:45:33;;;;;;;3.53;1.40;;;11.40;99.90;;;11.78;65.38;100429.34;4900785;28;96982;-47
2023/12/12 02:48:01;;;;;;;3.00;1.00;;;11.40;99.90;;;11.81;64.99;100428.38;4907045;28;97161;-51
2023/12/12 02:50:27;;;;;;;6.07;1.93;;;11.50;99.90;;;11.83;65.26;100423.88;4908797;28;101614;-50
2023/12/12 02:52:53;;;;;;;7.83;1.80;;;11.50;99.90;;;11.89;65.23;100415.69;4902142;28;97347;-51
2023/12/12 02:55:18;;;;;;;4.20;1.57;;;11.50;99.90;;;11.88;64.94;100428.06;4901317;28;97568;-51
2023/12/12 02:57:44;;;;;;;3.70;1.30;;;11.60;99.90;;;11.90;64.92;100426.22;4902060;28;97353;-52
2023/12/12 03:00:10;;;;;;;4.23;1.20;;;11.60;99.90;;;11.91;64.93;100419.13;4896282;28;98831;-50
2023/12/12 03:02:36;;;;;;;3.43;1.57;;;11.60;99.90;;;11.95;65.61;100418.06;4902738;28;97135;-51
2023/12/12 03:05:04;;;;;;;2.77;1.23;;;11.60;99.90;;;11.99;65.58;100419.63;4901075;28;97221;-57
2023/12/12 03:07:31;;;;;;;3.73;1.30;;;11.70;99.90;;;12.00;65.39;100423.97;4906761;28;101511;-48
2023/12/12 03:09:58;;;;;;;6.33;1.53;;;11.70;99.90;;;12.03;65.32;100417.72;4906749;28;101520;-48
2023/12/12 03:12:23;;;;;;;3.00;1.13;;;11.70;99.90;;;12.04;65.08;100425.59;4907634;28;97236;-47
2023/12/12 03:14:50;;;;;;;4.07;1.30;;;11.80;99.90;;;12.06;64.70;100415.78;4899898;28;97261;-47
2023/12/12 03:17:15;;;;;;;8.37;1.37;;;11.80;99.90;;;12.09;64.56;100420.94;4899025;28;97550;-47
2023/12/12 03:19:41;;;;;;;3.87;1.30;;;11.80;99.90;;;12.04;64.80;100420.31;4907696;28;101023;-47
2023/12/12 03:22:07;;;;;;;6.57;1.20;;;11.80;99.90;;;12.07;65.16;100420.16;4900405;28;97185;-47
2023/12/12 03:24:33;;;;;;;6.33;1.63;;;11.80;99.90;;;12.06;64.54;100422.88;4894739;28;97529;-51
2023/12/12 03:26:59;;;;;;;8.80;1.37;;;11.80;99.90;;;12.08;65.15;100421.00;4906085;28;96993;-47
2023/12/12 03:29:24;;;;;;;3.33;1.30;;;11.80;99.90;;;12.11;65.01;100410.28;4900339;28;97124;-48
2023/12/12 03:31:50;;;;;;;6.83;1.40;;;11.80;99.90;;;12.15;64.87;100410.09;4904028;28;97856;-51
2023/12/12 03:34:16;;;;;;;6.37;0.93;;;11.80;99.90;;;12.15;64.89;100415.38;4903825;28;97472;-52
2023/12/12 03:36:43;;;;;;;6.20;1.70;;;11.90;99.90;;;12.16;65.48;100413.59;4900383;28;99010;-49
2023/12/12 03:39:10;;;;;;;3.10;1.20;;;11.90;99.90;;;12.15;64.93;100406.56;4900058;28;98363;-50
2023/12/12 03:41:36;;;;;;;9.30;1.63;;;11.90;99.90;;;12.13;65.21;100406.63;4908026;28;97325;-47
2023/12/12 03:44:02;;;;;;;5.40;1.87;;;11.80;99.90;;;12.14;64.91;100405.72;4899510;28;97310;-58
2023/12/12 03:46:27;;;;;;;7.03;1.40;;;11.90;99.90;;;12.13;64.96;100401.34;4906549;28;101400;-50
2023/12/12 03:48:54;;;;;;;7.03;1.60;;;11.80;99.90;;;12.10;64.83;100398.84;4899307;28;97865;-49
2023/12/12 03:51:19;;;;;;;7.47;1.30;;;11.80;99.90;;;12.11;64.53;100394.44;4903486;28;97498;-47
2023/12/12 03:53:45;;;;;;;4.63;1.40;;;11.80;99.90;;;12.15;64.75;100399.53;4901166;28;103506;-48
2023/12/12 03:56:11;;;;;;;5.40;1.63;;;11.80;99.90;;;12.25;64.56;100399.94;4897893;28;99758;-49
2023/12/12 03:58:37;;;;;;;4.10;0.90;;;11.90;99.90;;;12.18;64.54;100396.72;4902160;28;97096;-48
2023/12/12 04:01:03;;;;;;;7.17;1.63;;;11.80;99.90;;;12.19;64.81;100398.44;4905522;28;97412;-52
2023/12/12 04:03:32;;;;;;;2.47;0.90;;;11.80;99.90;;;12.25;64.65;100385.84;4905622;28;97245;-51
2023/12/12 04:05:57;;;;;;;4.17;1.13;;;11.90;99.90;;;12.32;64.29;100382.00;4903386;28;102155;-48
2023/12/12 04:08:23;;;;;;;5.87;1.37;;;11.90;99.90;;;12.33;64.00;100389.00;4902883;28;98378;-50
2023/12/12 04:10:49;;;;;;;7.50;1.43;;;11.90;99.90;;;12.28;64.24;100375.13;4907086;28;97529;-49
2023/12/12 04:13:14;;;;;;;4.20;1.33;;;11.90;99.90;;;12.29;64.14;100376.84;4905011;28;97126;-47
2023/12/12 04:15:40;;;;;;;5.70;1.23;;;11.90;99.90;;;12.27;63.92;100373.41;4904329;28;101626;-47
2023/12/12 04:18:06;;;;;;;3.87;1.23;;;11.90;99.90;;;12.29;63.93;100360.97;4901710;28;97363;-48
2023/12/12 04:20:32;;;;;;;3.80;1.20;;;11.90;99.90;;;12.33;63.67;100357.28;4898133;28;97844;-51
2023/12/12 04:22:58;;;;;;;4.07;0.97;;;11.90;99.90;;;12.28;64.06;100351.31;4901626;28;97349;-50
2023/12/12 04:25:23;;;;;;;3.23;1.43;;;11.90;99.90;;;12.34;63.24;100348.41;4908984;28;99563;-49
2023/12/12 04:27:49;;;;;;;3.60;1.17;;;11.90;99.90;;;12.36;63.36;100343.91;4905144;28;97095;-47
2023/12/12 04:30:15;;;;;;;5.60;1.23;;;11.90;99.90;;;12.52;62.99;100337.78;4907597;28;97269;-49
2023/12/12 04:32:41;;;;;;;5.77;0.93;;;12.00;99.90;;;12.63;62.17;100339.06;4894261;28;97225;-51
2023/12/12 04:35:08;;;;;;;4.63;1.00;;;12.10;99.90;;;12.81;61.56;100333.72;4908050;28;97574;-49
2023/12/12 04:37:34;;;;;;;3.67;0.80;;;12.30;99.90;;;12.82;61.46;100335.41;4908453;28;96930;-48
2023/12/12 04:40:01;;;;;;;2.23;0.63;;;12.30;99.90;;;12.81;61.05;100346.94;4909791;28;96946;-50
2023/12/12 04:42:26;;;;;;;4.37;1.10;;;12.30;99.90;;;12.95;60.94;100335.66;4906303;28;96974;-49
2023/12/12 04:44:52;;;;;;;3.10;1.03;;;12.40;99.90;;;13.10;60.59;100334.03;4905456;28;101902;-49
2023/12/12 04:47:18;;;;;;;7.53;1.30;;;12.60;99.90;;;12.99;60.10;100331.91;4900197;28;98513;-53
2023/12/12 04:49:44;;;;;;;3.97;0.93;;;12.50;99.90;;;12.91;60.32;100328.81;4906178;28;97329;-51
2023/12/12 04:52:09;;;;;;;8.10;1.57;;;12.40;99.90;;;12.81;60.84;100333.72;4913283;28;97309;-52
2023/12/12 04:54:35;;;;;;;5.63;1.30;;;12.30;99.90;;;12.81;60.69;100328.41;4910521;28;100388;-50
2023/12/12 04:57:01;;;;;;;3.17;0.80;;;12.30;99.90;;;12.99;60.57;100336.34;4905767;28;97349;-50
2023/12/12 04:59:27;;;;;;;7.73;1.70;;;12.40;99.90;;;13.10;59.64;100328.72;4889597;28;97828;-50
2023/12/12 05:01:53;;;;;;;4.57;0.87;;;12.60;99.90;;;13.11;59.72;100325.16;4906875;28;97184;-50
2023/12/12 05:04:18;;;;;;;4.70;1.17;;;12.60;99.90;;;13.11;60.04;100326.00;4907467;28;97719;-49
2023/12/12 05:06:44;;;;;;;4.53;1.10;;;12.60;99.90;;;13.09;59.57;100322.59;4894989;28;103679;-52
2023/12/12 05:09:10;;;;;;;1.87;0.73;;;12.60;99.90;;;13.14;59.97;100324.97;4902342;28;96974;-49
2023/12/12 05:11:36;;;;;;;4.63;1.20;;;12.60;99.90;;;13.17;59.26;100319.56;4904719;28;97444;-48
2023/12/12 05:14:06;;;;;;;3.13;1.03;;;12.70;99.90;;;13.15;59.26;100325.84;4906814;28;97359;-52
2023/12/12 05:16:35;;;;;;;1.63;0.93;;;12.70;99.90;;;13.23;59.22;100321.91;4901589;28;97228;-47
2023/12/12 05:19:00;;;;;;;3.70;1.00;;;12.80;99.90;;;13.34;58.81;100319.56;4899174;28;96972;-51
2023/12/12 05:21:27;;;;;;;3.37;1.00;;;12.80;99.90;;;13.42;58.21;100318.28;4904297;28;97391;-49
2023/12/12 05:23:52;;;;;;;4.73;1.00;;;12.90;99.90;;;13.43;58.72;100312.06;4900260;28;98207;-50
2023/12/12 05:26:18;;;;;;;12.10;1.20;;;12.90;99.90;;;13.42;58.46;100318.28;4905982;28;97297;-51
2023/12/12 05:28:45;;;;;;;3.73;1.20;;;12.90;99.90;;;13.49;58.15;100309.09;4897837;28;97294;-51
2023/12/12 05:31:11;;;;;;;6.10;1.20;;;12.90;99.90;;;13.48;58.28;100310.88;4891899;28;97132;-52
2023/12/12 05:33:38;;;;;;;4.47;1.73;;;12.90;99.90;;;13.64;58.05;100308.28;4897216;28;97023;-51
2023/12/12 05:36:04;;;;;;;2.40;0.80;;;13.10;99.90;;;13.72;57.81;100308.69;4880766;28;97581;-48
2023/12/12 05:38:30;;;;;;;5.37;1.43;;;13.20;99.90;;;13.74;57.34;100320.06;4905605;28;96964;-48
2023/12/12 05:40:56;;;;;;;3.10;0.80;;;13.20;99.90;;;13.80;56.93;100313.59;4876976;28;97038;-51
2023/12/12 05:43:27;;;;;;;2.10;1.07;;;13.30;99.90;;;13.90;56.76;100305.06;4905959;28;98717;-50
2023/12/12 05:45:54;;;;;;;1.80;0.97;;;13.40;99.90;;;14.04;56.99;100308.75;4872211;28;97353;-47
2023/12/12 05:48:20;;;;;;;3.23;0.70;;;13.60;99.90;;;14.14;56.53;100312.59;4902893;28;99451;-52
2023/12/12 05:50:46;;;;;;;5.30;0.90;;;13.80;99.90;;;14.34;55.88;100307.03;4909793;28;97729;-50
2023/12/12 05:53:12;;;;;;;2.30;0.70;;;14.10;99.90;;;14.42;55.61;100303.94;4908595;28;103686;-48
2023/12/12 05:55:37;;;;;;;2.23;0.67;;;14.20;99.90;;;14.37;55.29;100304.22;4904257;28;114099;-52
2023/12/12 05:58:04;;;;;;;1.23;0.43;;;14.10;99.90;;;14.36;55.24;100307.81;4908188;28;96576;-51
2023/12/12 06:00:30;;;;;;;2.93;0.43;;;14.00;99.90;;;14.28;55.60;100310.03;4897877;28;97451;-53
2023/12/12 06:02:56;;;;;;;1.73;0.60;;;13.80;99.90;;;14.26;55.69;100311.91;4902521;28;109935;-51
2023/12/12 06:05:21;;;;;;;7.23;1.27;;;13.70;99.90;;;14.10;55.34;100311.91;4907792;28;97362;-50
2023/12/12 06:07:47;;;;;;;4.83;0.97;;;13.60;99.90;;;13.99;56.48;100316.94;4903740;28;97549;-53
2023/12/12 06:10:13;;;;;;;0.50;0.50;;;13.40;99.90;;;13.95;56.70;100313.63;4899621;28;96864;-52
2023/12/12 06:12:39;;;;;;;2.80;0.80;;;13.30;99.90;;;13.96;56.89;100303.88;4897895;28;97427;-51
2023/12/12 06:15:07;;;;;;;5.20;1.37;;;13.30;99.90;;;13.96;56.80;100312.69;4908827;28;117977;-49
2023/12/12 06:17:35;;;;;;;4.47;1.20;;;13.30;99.90;;;13.90;56.67;100310.38;4892499;28;96570;-52
2023/12/12 06:20:01;;;;;;;8.33;1.60;;;13.30;99.90;;;13.83;56.02;100319.59;4910234;28;96919;-52
2023/12/12 06:22:26;;;;;;;4.00;1.03;;;13.30;99.90;;;13.88;57.11;100311.38;4903398;28;98421;-51
2023/12/12 06:24:53;;;;;;;3.87;1.17;;;13.30;99.90;;;13.80;56.72;100314.47;4902554;28;104059;-52
2023/12/12 06:27:19;;;;;;;5.50;1.23;;;13.30;99.90;;;13.88;56.87;100311.38;4899593;28;97470;-52
2023/12/12 06:29:45;;;;;;;9.57;1.60;;;13.40;99.90;;;13.80;56.92;100306.50;4907733;28;97585;-50
2023/12/12 06:32:10;;;;;;;3.53;0.80;;;13.30;99.90;;;13.65;57.80;100310.84;4908873;28;97230;-52
2023/12/12 06:34:36;;;;;;;3.50;1.40;;;13.10;99.90;;;13.74;57.14;100309.47;4899959;28;107519;-50
2023/12/12 06:37:03;;;;;;;4.63;0.93;;;13.30;99.90;;;13.65;57.69;100310.00;4911344;28;97726;-57
2023/12/12 06:39:29;;;;;;;5.47;0.93;;;13.10;99.90;;;13.64;57.73;100305.63;4901636;28;98421;-52
2023/12/12 06:41:55;;;;;;;9.67;1.00;;;13.10;99.90;;;13.66;57.78;100307.25;4884364;28;100207;-50
2023/12/12 06:44:21;;;;;;;4.43;1.00;;;13.20;99.90;;;13.68;56.87;100304.50;4899530;28;102405;-52
2023/12/12 06:46:46;;;;;;;11.07;1.50;;;13.20;99.90;;;13.58;57.30;100303.28;4895265;28;97381;-51
2023/12/12 06:49:12;;;;;;;6.47;1.20;;;13.10;99.90;;;13.60;58.09;100297.00;4904452;28;96776;-50
2023/12/12 06:51:38;;;;;;;7.13;1.50;;;13.10;99.90;;;13.62;57.70;100288.97;4899891;28;97156;-52
2023/12/12 06:54:04;;;;;;;1.60;0.70;;;13.10;99.90;;;13.66;58.05;100295.78;4899601;28;97339;-52
2023/12/12 06:56:31;;;;;;;0.90;0.80;;;13.20;99.90;;;13.68;57.84;100285.97;4887773;28;97613;-52
2023/12/12 06:58:57;;;;;;;1.30;0.57;;;13.20;99.90;;;13.67;58.06;100278.94;4884284;28;97754;-51
2023/12/12 07:01:22;;;;;;;2.60;0.83;;;13.20;99.90;;;13.70;57.70;100289.38;4904743;28;97508;-51
2023/12/12 07:03:48;;;;;;;4.60;1.53;;;13.20;99.90;;;13.49;58.29;100285.25;4904407;28;97015;-51
2023/12/12 07:06:20;;;;;;;8.60;1.43;;;13.10;99.90;;;13.36;58.28;100283.25;4903225;28;97419;-49
2023/12/12 07:08:46;;;;;;;5.37;1.23;;;13.00;99.90;;;13.21;58.33;100278.75;4899480;28;97657;-52
2023/12/12 07:11:12;;;;;;;4.73;1.43;;;12.90;99.90;;;13.28;58.92;100277.47;4899350;28;97109;-50
2023/12/12 07:13:38;;;;;;;5.07;1.50;;;12.80;99.90;;;13.18;58.89;100284.22;4901582;28;110848;-51
2023/12/12 07:16:10;;;;;;;1.60;0.83;;;12.80;99.90;;;13.20;59.03;100270.91;4891725;28;97121;-51
2023/12/12 07:18:39;;;;;;;4.10;1.00;;;12.80;99.90;;;13.36;59.11;100277.94;4890967;28;97081;-49
2023/12/12 07:21:06;;;;;;;4.23;0.77;;;12.90;99.90;;;13.36;59.11;100271.78;4880572;28;98184;-54
2023/12/12 07:23:33;;;;;;;4.90;1.30;;;12.90;99.90;;;13.39;59.11;100275.13;4892241;28;98459;-51
2023/12/12 07:25:59;;;;;;;5.73;1.27;;;13.00;99.90;;;13.43;58.85;100262.56;4903407;28;97372;-52
2023/12/12 07:28:26;;;;;;;6.10;1.60;;;13.00;99.90;;;13.43;59.02;100267.00;4909966;28;96863;-49
2023/12/12 07:30:53;;;;;;;2.90;1.33;;;13.00;99.90;;;13.36;59.13;100262.06;4905844;28;97414;-52
2023/12/12 07:33:19;;;;;;;4.30;0.90;;;12.90;99.90;;;13.45;58.72;100260.69;4902840;28;97248;-51
2023/12/12 07:35:46;;;;;;;4.97;1.87;;;13.10;99.90;;;13.54;58.28;100254.06;4908128;28;97344;-53
2023/12/12 07:38:12;;;;;;;3.50;1.23;;;13.20;99.90;;;13.60;58.29;100256.38;4903268;28;97575;-50
2023/12/12 07:40:37;;;;;;;4.73;1.57;;;13.20;99.90;;;13.61;58.05;100251.00;4894063;28;98677;-52
2023/12/12 07:43:03;;;;;;;5.73;1.37;;;13.30;99.90;;;13.52;58.00;100250.63;4899652;28;101776;-51
2023/12/12 07:45:29;;;;;;;5.27;2.10;;;13.20;99.90;;;13.47;59.31;100252.69;4901955;28;98667;-54
2023/12/12 07:47:55;;;;;;;4.43;1.70;;;13.10;99.90;;;13.32;59.14;100249.91;4906609;28;97201;-52
2023/12/12 07:50:21;;;;;;;5.20;1.40;;;13.00;99.90;;;13.33;59.43;100256.06;4897741;28;97135;-52
2023/12/12 07:52:47;;;;;;;3.00;1.17;;;12.90;99.90;;;13.36;59.29;100250.59;4902262;28;97427;-52
2023/12/12 07:55:13;;;;;;;1.83;0.80;;;12.90;99.90;;;13.42;59.17;100244.97;4905652;28;97521;-51
2023/12/12 07:57:39;;;;;;;2.63;0.77;;;13.00;99.90;;;13.70;58.02;100241.66;4901281;28;97346;-52
2023/12/12 08:00:06;;;;;;;2.03;0.63;;;13.30;99.90;;;13.89;56.97;100242.38;4902663;28;97732;-51
2023/12/12 08:02:33;;;;;;;4.27;0.83;;;13.60;99.90;;;14.14;56.58;100230.38;4896962;28;98391;-50
2023/12/12 08:04:59;;;;;;;5.10;1.53;;;14.00;99.90;;;14.12;56.02;100232.25;4893066;28;101409;-47
2023/12/12 08:07:25;;;;;;;4.30;0.93;;;14.00;99.90;;;14.35;55.56;100231.81;4895225;28;97777;-53
2023/12/12 08:09:51;;;;;;;1.10;0.67;;;14.30;99.90;;;14.39;55.54;100238.63;4899186;28;98588;-49
2023/12/12 08:12:17;;;;;;;6.10;0.83;;;14.20;99.90;;;14.56;55.00;100240.34;4852086;28;97513;-52
2023/12/12 08:14:48;;;;;;;4.77;1.27;;;14.50;99.90;;;14.69;54.21;100230.72;4882986;28;97309;-47
2023/12/12 08:17:14;;;;;;;6.63;1.80;;;14.70;99.90;;;14.80;53.81;100227.41;4888331;28;98439;-52
2023/12/12 08:19:40;;;;;;;3.93;0.80;;;14.80;99.90;;;14.96;54.02;100233.53;4902483;28;98160;-51
2023/12/12 08:22:06;;;;;;;1.53;0.70;;;15.00;99.90;;;15.02;53.46;100230.47;4896453;28;97484;-54
2023/12/12 08:24:32;;;;;;;0.97;0.30;;;15.10;99.90;;;15.12;53.49;100228.97;4901592;28;97860;-51
2023/12/12 08:26:58;;;;;;;7.67;1.60;;;15.20;99.90;;;15.03;53.13;100229.53;4903033;28;97562;-50
2023/12/12 08:29:24;;;;;;;6.63;2.10;;;15.10;99.90;;;14.83;53.70;100221.94;4903081;28;107497;-53
2023/12/12 08:31:50;;;;;;;5.90;1.17;;;14.80;99.90;;;14.88;53.67;100225.16;4905771;28;97453;-51
2023/12/12 08:34:16;;;;;;;1.60;0.80;;;14.80;99.90;;;14.76;53.59;100233.88;4899680;28;97303;-49
2023/12/12 08:36:42;;;;;;;2.23;0.63;;;14.60;99.90;;;14.86;53.98;100227.03;4900813;28;98336;-49
2023/12/12 08:39:08;;;;;;;1.43;0.97;;;14.70;99.90;;;14.93;53.87;100239.03;4899762;28;110934;-48
2023/12/12 08:41:37;;;;;;;1.80;0.80;;;14.90;99.90;;;15.02;53.63;100219.00;4899929;28;102258;-51
2023/12/12 08:44:03;;;;;;;3.30;1.10;;;15.00;99.90;;;15.15;53.29;100227.94;4902246;28;96778;-50
2023/12/12 08:46:29;;;;;;;2.77;0.77;;;15.20;99.90;;;15.27;52.29;100231.66;4897982;28;97259;-51
2023/12/12 08:48:56;;;;;;;3.27;1.20;;;15.40;99.90;;;15.22;51.89;100229.28;4895808;28;107946;-49
2023/12/12 08:51:23;;;;;;;7.33;1.33;;;15.40;99.90;;;15.12;52.03;100234.28;4901685;28;97158;-53
2023/12/12 08:53:49;;;;;;;2.53;0.93;;;15.20;99.90;;;14.97;52.88;100235.22;4883781;28;97647;-50
2023/12/12 08:56:16;;;;;;;2.27;1.17;;;15.00;99.90;;;14.91;53.18;100230.28;4898700;28;97027;-50
2023/12/12 08:58:48;;;;;;;5.50;1.47;;;14.90;99.90;;;14.73;54.11;100224.25;4898141;28;97240;-53
2023/12/12 09:01:15;;;;;;;1.90;0.77;;;14.60;99.90;;;14.87;53.29;100223.44;4895958;28;97465;-52
2023/12/12 09:03:41;;;;;;;2.87;0.90;;;14.80;99.90;;;15.00;53.57;100224.41;4909975;28;97306;-52
2023/12/12 09:06:08;;;;;;;2.43;1.03;;;14.90;99.90;;;14.83;53.75;100227.22;4901824;28;97106;-54
2023/12/12 09:08:35;;;;;;;6.90;1.70;;;14.80;99.90;;;14.77;53.09;100219.66;4897908;28;97225;-50
2023/12/12 09:11:01;;;;;;;3.47;1.40;;;14.80;99.90;;;14.68;54.13;100220.19;4904424;28;101938;-52
2023/12/12 09:13:27;;;;;;;3.17;0.77;;;14.50;99.90;;;14.50;54.66;100212.38;4887224;28;98335;-49
2023/12/12 09:15:54;;;;;;;4.87;0.87;;;14.40;99.90;;;14.48;54.42;100201.00;4901620;28;97079;-49
2023/12/12 09:18:20;;;;;;;3.60;0.93;;;14.30;99.90;;;14.47;54.39;100203.75;4901742;28;97463;-53
2023/12/12 09:20:47;;;;;;;3.63;1.30;;;14.40;99.90;;;14.55;54.71;100197.03;4900031;28;97049;-50
2023/12/12 09:23:13;;;;;;;3.60;0.80;;;14.40;99.90;;;14.66;54.74;100187.56;4880556;28;96976;-52
2023/12/12 09:25:39;;;;;;;2.70;0.80;;;14.50;99.90;;;14.71;54.57;100180.19;4906296;28;97396;-50
2023/12/12 09:28:05;;;;;;;3.03;0.90;;;14.60;99.90;;;14.80;53.95;100174.31;4899159;28;97140;-56
2023/12/12 09:30:31;;;;;;;5.37;1.27;;;14.70;99.90;;;14.79;53.64;100167.31;4900057;28;97081;-53
2023/12/12 09:32:57;;;;;;;7.20;1.00;;;14.70;99.90;;;14.75;54.16;100160.44;4896220;28;97340;-54
2023/12/12 09:35:24;;;;;;;1.03;0.57;;;14.60;99.90;;;14.87;54.07;100162.38;4896524;28;101551;-53
2023/12/12 09:37:50;;;;;;;4.50;0.93;;;14.80;99.90;;;14.95;53.60;100157.47;4905141;28;97334;-48
2023/12/12 09:40:16;;;;;;;13.07;1.90;;;14.90;99.90;;;14.78;52.71;100160.28;4904692;28;96942;-52
2023/12/12 09:42:47;;;;;;;6.13;1.50;;;14.70;99.90;;;14.72;54.08;100150.88;4903803;28;97741;-51
2023/12/12 09:45:15;;;;;;;6.03;1.40;;;14.60;99.90;;;14.73;53.59;100135.81;4914434;28;99046;-51
2023/12/12 09:47:45;;;;;;;1.70;0.70;;;14.60;99.90;;;14.81;54.04;100149.47;4899610;28;97522;-52
2023/12/12 09:50:13;;;;;;;1.60;0.70;;;14.60;99.90;;;14.70;54.25;100138.66;4898770;28;97260;-52
2023/12/12 09:52:39;;;;;;;4.27;0.90;;;14.50;99.90;;;14.69;54.25;100131.63;4901674;28;97600;-49
2023/12/12 09:55:06;;;;;;;6.70;1.23;;;14.50;99.90;;;14.77;53.79;100126.72;4895821;28;97221;-54
2023/12/12 09:57:32;;;;;;;4.70;1.20;;;14.60;99.90;;;14.72;54.19;100128.78;4911876;28;96832;-53
2023/12/12 09:59:59;;;;;;;5.13;1.00;;;14.60;99.90;;;14.72;53.86;100107.56;4891279;28;103234;-51
2023/12/12 10:02:35;;;;;;;12.67;1.27;;;14.60;99.90;;;14.78;53.76;100112.50;4903590;28;98512;-52
2023/12/12 10:05:09;;;;;;;5.17;1.70;;;14.60;99.90;;;14.82;53.56;100103.41;4907712;28;97272;-50
2023/12/12 10:07:37;;;;;;;9.67;1.90;;;14.70;99.90;;;14.93;53.52;100108.03;4897881;28;100276;-50